createdAt,value
2022-09-15T00:02:31.021Z,17.67
2022-09-15T00:05:00.435Z,15.02
2022-09-15T00:07:29.909Z,17.75
2022-09-15T00:09:59.062Z,18.45
2022-09-15T00:12:29.045Z,17.48
2022-09-15T00:14:58.690Z,16.73
2022-09-15T00:17:31.162Z,17.15
2022-09-15T00:20:00.518Z,16.48
2022-09-15T00:22:30.377Z,15.18
2022-09-15T00:24:59.868Z,15.77
2022-09-15T00:27:28.906Z,16.45
2022-09-15T00:30:10.340Z,15.65
2022-09-15T00:32:41.669Z,14.90
2022-09-15T00:35:11.486Z,15.98
2022-09-15T00:37:41.620Z,13.52
2022-09-15T00:40:11.943Z,15.48
2022-09-15T00:42:41.104Z,15.70
2022-09-15T00:45:17.960Z,14.13
2022-09-15T00:47:49.286Z,15.15
2022-09-15T00:50:21.822Z,14.15
2022-09-15T00:52:54.887Z,14.75
2022-09-15T00:55:32.294Z,14.75
2022-09-15T00:58:04.412Z,14.40
2022-09-15T01:00:33.505Z,12.70
2022-09-15T01:03:05.699Z,12.05
2022-09-15T01:05:44.894Z,13.43
2022-09-15T01:08:23.882Z,13.00
2022-09-15T01:10:54.105Z,12.93
2022-09-15T01:13:24.222Z,12.15
2022-09-15T01:16:01.228Z,11.93
2022-09-15T01:18:42.593Z,12.88
2022-09-15T01:21:29.967Z,12.55
2022-09-15T01:24:30.280Z,11.73
2022-09-15T01:27:30.660Z,12.95
2022-09-15T01:30:14.627Z,12.60
2022-09-15T01:33:06.337Z,12.93
2022-09-15T01:35:49.166Z,12.35
2022-09-15T01:38:42.378Z,11.75
2022-09-15T01:41:17.580Z,12.82
2022-09-15T01:43:53.329Z,12.05
2022-09-15T01:46:28.023Z,12.63
2022-09-15T01:49:05.593Z,13.40
2022-09-15T01:51:36.424Z,12.07
2022-09-15T01:54:08.408Z,12.83
2022-09-15T01:56:40.394Z,13.00
2022-09-15T01:59:10.829Z,12.73
2022-09-15T02:01:46.921Z,12.55
2022-09-15T02:04:21.309Z,12.18
2022-09-15T02:06:58.076Z,11.20
2022-09-15T02:09:43.109Z,10.40
2022-09-15T02:12:20.563Z,10.07
2022-09-15T02:14:58.202Z,9.60
2022-09-15T02:17:37.770Z,10.70
2022-09-15T02:20:15.690Z,10.80
2022-09-15T02:22:51.687Z,10.52
2022-09-15T02:25:27.137Z,9.95
2022-09-15T02:28:06.630Z,9.63
2022-09-15T02:30:45.100Z,10.88
2022-09-15T02:33:23.690Z,10.05
2022-09-15T02:35:54.958Z,10.15
2022-09-15T02:38:24.130Z,9.73
2022-09-15T02:40:53.289Z,10.57
2022-09-15T02:45:58.461Z,11.45
2022-09-15T02:48:29.504Z,11.10
2022-09-15T02:51:03.743Z,10.55
2022-09-15T02:53:32.929Z,11.05
2022-09-15T02:56:02.553Z,10.35
2022-09-15T02:58:31.703Z,10.13
2022-09-15T03:01:03.925Z,11.30
2022-09-15T03:03:43.086Z,11.85
2022-09-15T03:06:20.581Z,12.35
2022-09-15T03:08:52.318Z,11.70
2022-09-15T03:11:23.742Z,13.00
2022-09-15T03:13:56.295Z,12.40
2022-09-15T03:16:26.556Z,12.00
2022-09-15T03:19:00.495Z,13.05
2022-09-15T03:21:31.290Z,12.55
2022-09-15T03:24:00.753Z,12.13
2022-09-15T03:26:30.668Z,12.60
2022-09-15T03:28:59.989Z,12.32
2022-09-15T03:31:29.078Z,12.40
2022-09-15T03:34:00.228Z,11.52
2022-09-15T03:36:34.615Z,12.48
2022-09-15T03:39:08.800Z,13.32
2022-09-15T03:41:37.960Z,12.95
2022-09-15T03:44:12.131Z,13.75
2022-09-15T03:46:41.302Z,13.55
2022-09-15T03:49:12.370Z,13.48
2022-09-15T03:51:41.671Z,13.48
2022-09-15T03:54:15.739Z,14.15
2022-09-15T03:56:46.969Z,13.45
2022-09-15T03:59:18.552Z,13.82
2022-09-15T04:01:48.276Z,13.25
2022-09-15T04:04:24.390Z,12.55
2022-09-15T04:06:53.678Z,10.80
2022-09-15T04:09:24.389Z,12.55
2022-09-15T04:11:53.486Z,12.80
2022-09-15T04:14:25.202Z,12.32
2022-09-15T04:16:54.554Z,12.85
2022-09-15T04:19:25.650Z,11.82
2022-09-15T04:21:59.830Z,13.02
2022-09-15T04:24:29.120Z,12.15
2022-09-15T04:27:03.891Z,11.43
2022-09-15T04:29:38.054Z,9.85
2022-09-15T04:32:12.825Z,10.55
2022-09-15T04:34:44.090Z,10.52
2022-09-15T04:37:14.537Z,9.80
2022-09-15T04:39:44.053Z,9.90
2022-09-15T04:42:18.408Z,9.68
2022-09-15T04:44:47.689Z,9.88
2022-09-15T04:47:17.145Z,9.32
2022-09-15T04:49:58.413Z,9.02
2022-09-15T04:52:28.839Z,8.30
2022-09-15T04:54:57.971Z,8.35
2022-09-15T04:57:27.231Z,8.57
2022-09-15T04:59:56.277Z,9.48
2022-09-15T05:02:30.617Z,10.65
2022-09-15T05:05:08.142Z,11.13
2022-09-15T05:07:37.397Z,10.02
2022-09-15T05:10:08.489Z,10.30
2022-09-15T05:12:37.471Z,9.98
2022-09-15T05:15:07.732Z,10.80
2022-09-15T05:17:37.120Z,9.65
2022-09-15T05:22:51.245Z,9.90
2022-09-15T05:25:20.465Z,10.10
2022-09-15T05:27:49.687Z,9.30
2022-09-15T05:33:08.453Z,9.55
2022-09-15T05:35:39.412Z,9.40
2022-09-15T05:38:08.865Z,9.23
2022-09-15T05:40:37.936Z,9.93
2022-09-15T05:43:07.459Z,10.23
2022-09-15T05:45:41.503Z,11.07
2022-09-15T05:48:11.270Z,10.15
2022-09-15T05:50:51.114Z,9.95
2022-09-15T05:53:20.938Z,10.90
2022-09-15T05:55:49.997Z,10.38
2022-09-15T05:58:19.109Z,11.05
2022-09-15T06:00:54.143Z,10.02
2022-09-15T06:03:28.826Z,10.55
2022-09-15T06:06:06.562Z,10.45
2022-09-15T06:08:37.333Z,7.90
2022-09-15T06:11:13.339Z,6.15
2022-09-15T06:13:42.544Z,5.43
2022-09-15T06:16:13.824Z,4.40
2022-09-15T06:18:48.627Z,3.95
2022-09-15T06:21:21.207Z,4.20
2022-09-15T06:24:00.122Z,4.57
2022-09-15T06:26:30.126Z,4.30
2022-09-15T06:29:01.074Z,5.18
2022-09-15T06:31:33.203Z,4.65
2022-09-15T06:34:04.901Z,6.32
2022-09-15T06:36:38.063Z,4.63
2022-09-15T06:39:14.778Z,5.20
2022-09-15T06:44:42.191Z,3.53
2022-09-15T06:47:11.367Z,3.05
2022-09-15T06:49:40.389Z,3.25
2022-09-15T06:52:11.541Z,3.05
2022-09-15T06:54:40.830Z,3.97
2022-09-15T06:57:09.870Z,3.22
2022-09-15T06:59:44.222Z,3.58
2022-09-15T07:02:18.377Z,3.60
2022-09-15T07:04:47.600Z,3.65
2022-09-15T07:07:18.634Z,3.50
2022-09-15T07:09:49.190Z,3.85
2022-09-15T07:12:18.515Z,4.05
2022-09-15T07:14:47.544Z,5.38
2022-09-15T07:17:21.645Z,4.63
2022-09-15T07:19:50.968Z,4.78
2022-09-15T07:22:22.017Z,4.68
2022-09-15T07:24:51.098Z,4.53
2022-09-15T07:27:31.010Z,4.63
2022-09-15T07:30:01.665Z,4.15
2022-09-15T07:32:32.891Z,4.10
2022-09-15T07:35:07.755Z,3.78
2022-09-15T07:37:39.158Z,3.42
2022-09-15T07:40:11.305Z,3.78
2022-09-15T07:42:44.512Z,3.08
2022-09-15T07:45:14.089Z,3.00
2022-09-15T07:47:43.096Z,2.97
2022-09-15T07:50:17.394Z,2.42
2022-09-15T07:52:48.405Z,2.65
2022-09-15T07:55:17.922Z,2.25
2022-09-15T07:57:46.923Z,2.58
2022-09-15T08:00:17.133Z,3.08
2022-09-15T08:02:46.276Z,2.70
2022-09-15T08:05:15.562Z,2.80
2022-09-15T08:07:44.673Z,2.70
2022-09-15T08:10:15.656Z,2.80
2022-09-15T08:12:44.804Z,2.45
2022-09-15T08:15:13.790Z,2.80
2022-09-15T08:17:42.896Z,2.53
2022-09-15T08:20:12.696Z,2.70
2022-09-15T08:25:24.774Z,2.78
2022-09-15T08:28:01.009Z,2.53
2022-09-15T08:30:30.737Z,2.38
2022-09-15T08:33:05.534Z,2.40
2022-09-15T08:35:36.425Z,2.15
2022-09-15T08:38:05.554Z,2.20
2022-09-15T08:40:39.234Z,2.47
2022-09-15T08:43:17.078Z,2.30
2022-09-15T08:45:59.475Z,2.40
2022-09-15T08:48:37.585Z,2.75
2022-09-15T08:51:15.297Z,2.55
2022-09-15T08:53:48.369Z,2.55
2022-09-15T08:58:55.158Z,2.20
2022-09-15T09:01:42.112Z,2.47
2022-09-15T09:04:38.038Z,2.70
2022-09-15T09:07:19.277Z,3.10
2022-09-15T09:09:54.914Z,3.55
2022-09-15T09:12:45.563Z,2.70
2022-09-15T09:15:25.060Z,2.70
2022-09-15T09:18:14.174Z,2.83
2022-09-15T09:20:56.264Z,2.63
2022-09-15T09:23:29.040Z,2.75
2022-09-15T09:26:01.476Z,2.50
2022-09-15T09:28:37.073Z,2.60
2022-09-15T09:31:09.306Z,2.45
2022-09-15T09:33:50.553Z,2.88
2022-09-15T09:36:20.334Z,2.33
2022-09-15T09:38:55.958Z,2.30
2022-09-15T09:41:35.266Z,2.67
2022-09-15T09:44:12.356Z,2.30
2022-09-15T09:46:43.775Z,2.35
2022-09-15T09:49:18.574Z,2.30
2022-09-15T09:51:52.617Z,2.10
2022-09-15T09:54:24.580Z,2.40
2022-09-15T09:56:55.284Z,2.15
2022-09-15T09:59:47.364Z,2.45
2022-09-15T10:02:21.618Z,2.15
2022-09-15T10:04:57.270Z,2.00
2022-09-15T10:07:28.280Z,2.60
2022-09-15T10:09:59.946Z,2.30
2022-09-15T10:12:33.025Z,2.30
2022-09-15T10:15:06.767Z,2.15
2022-09-15T10:17:45.386Z,2.47
2022-09-15T10:20:38.865Z,2.47
2022-09-15T10:23:25.238Z,2.20
2022-09-15T10:26:00.021Z,2.40
2022-09-15T10:28:30.104Z,2.03
2022-09-15T10:31:12.992Z,2.22
2022-09-15T10:33:44.550Z,2.30
2022-09-15T10:36:21.132Z,2.08
2022-09-15T10:38:52.398Z,2.30
2022-09-15T10:41:28.258Z,2.33
2022-09-15T10:44:31.854Z,2.30
2022-09-15T10:47:15.774Z,1.92
2022-09-15T10:49:58.557Z,2.00
2022-09-15T10:52:37.601Z,2.05
2022-09-15T10:55:42.475Z,2.33
2022-09-15T10:58:31.093Z,2.40
2022-09-15T11:01:14.227Z,2.40
2022-09-15T11:04:02.579Z,2.17
2022-09-15T11:06:38.180Z,2.53
2022-09-15T11:09:16.887Z,2.80
2022-09-15T11:12:06.087Z,2.38
2022-09-15T11:14:48.443Z,2.60
2022-09-15T11:17:37.960Z,2.17
2022-09-15T11:20:34.298Z,2.58
2022-09-15T11:23:24.454Z,2.58
2022-09-15T11:26:04.900Z,2.83
2022-09-15T11:28:40.724Z,2.58
2022-09-15T11:31:18.761Z,2.80
2022-09-15T11:33:58.563Z,2.70
2022-09-15T11:36:35.424Z,2.80
2022-09-15T11:39:12.489Z,2.45
2022-09-15T11:41:55.933Z,2.40
2022-09-15T11:44:33.184Z,2.38
2022-09-15T11:47:20.468Z,2.55
2022-09-15T11:49:52.920Z,2.20
2022-09-15T11:52:50.016Z,2.30
2022-09-15T11:55:27.472Z,2.20
2022-09-15T11:58:07.571Z,2.10
2022-09-15T12:00:41.046Z,2.47
2022-09-15T12:03:22.071Z,2.50
2022-09-15T12:05:54.732Z,2.40
2022-09-15T12:08:33.823Z,2.58
2022-09-15T12:11:07.586Z,2.45
2022-09-15T12:16:14.142Z,2.72
2022-09-15T12:18:49.160Z,3.03
2022-09-15T12:21:26.493Z,2.88
2022-09-15T12:24:03.084Z,3.25
2022-09-15T12:26:37.917Z,3.28
2022-09-15T12:29:41.801Z,3.55
2022-09-15T12:32:27.138Z,3.15
2022-09-15T12:35:35.624Z,3.40
2022-09-15T12:38:04.935Z,3.25
2022-09-15T12:40:41.210Z,3.38
2022-09-15T12:43:31.282Z,3.72
2022-09-15T12:46:04.324Z,3.75
2022-09-15T12:48:38.648Z,3.78
2022-09-15T12:57:05.471Z,3.38
2022-09-15T12:59:34.691Z,3.90
2022-09-15T13:02:04.292Z,4.18
2022-09-15T13:05:00.042Z,3.80
2022-09-15T13:07:38.835Z,3.95
2022-09-15T13:10:33.415Z,3.70
2022-09-15T13:13:28.854Z,3.92
2022-09-15T13:16:03.027Z,4.78
2022-09-15T13:18:33.988Z,4.25
2022-09-15T13:21:14.573Z,4.18
2022-09-15T13:23:48.393Z,4.15
2022-09-15T13:26:25.223Z,4.53
2022-09-15T13:28:57.298Z,4.30
2022-09-15T13:31:39.126Z,4.53
2022-09-15T13:38:20.562Z,4.05
2022-09-15T13:41:18.091Z,4.13
2022-09-15T13:44:17.562Z,4.25
2022-09-15T13:47:06.700Z,4.30
2022-09-15T13:49:48.641Z,3.80
2022-09-15T13:55:27.346Z,3.95
2022-09-15T14:00:59.967Z,3.97
2022-09-15T14:03:37.517Z,3.10
2022-09-15T14:06:13.595Z,3.17
2022-09-15T14:08:45.899Z,2.78
2022-09-15T14:11:17.923Z,2.70
2022-09-15T14:13:49.524Z,2.33
2022-09-15T14:16:31.001Z,2.47
2022-09-15T14:19:20.649Z,2.33
2022-09-15T14:21:52.842Z,2.40
2022-09-15T14:24:28.802Z,2.38
2022-09-15T14:29:42.153Z,2.55
2022-09-15T14:34:58.742Z,2.42
2022-09-15T14:37:34.566Z,2.50
2022-09-15T14:40:18.527Z,2.30
2022-09-15T14:42:48.229Z,2.40
2022-09-15T14:48:18.211Z,2.90
2022-09-15T14:50:48.743Z,2.22
2022-09-15T14:53:21.510Z,2.33
2022-09-15T14:55:56.033Z,2.30
2022-09-15T14:58:29.843Z,2.58
2022-09-15T15:01:02.582Z,2.60
2022-09-15T15:03:41.121Z,2.78
2022-09-15T15:06:32.534Z,2.80
2022-09-15T15:09:13.624Z,3.17
2022-09-15T15:11:43.931Z,2.83
2022-09-15T15:14:16.160Z,3.10
2022-09-15T15:16:53.689Z,3.20
2022-09-15T15:19:36.461Z,3.95
2022-09-15T15:22:21.807Z,4.10
2022-09-15T15:24:52.977Z,4.35
2022-09-15T15:27:43.726Z,4.60
2022-09-15T15:30:35.481Z,4.25
2022-09-15T15:33:06.494Z,3.75
2022-09-15T15:35:37.647Z,3.85
2022-09-15T15:38:14.570Z,3.70
2022-09-15T15:40:45.420Z,3.83
2022-09-15T15:43:25.891Z,3.75
2022-09-15T15:46:00.410Z,3.70
2022-09-15T15:48:34.002Z,2.90
2022-09-15T15:51:14.358Z,2.90
2022-09-15T15:53:43.492Z,2.40
2022-09-15T15:56:19.675Z,2.40
2022-09-15T16:01:30.705Z,2.05
2022-09-15T16:04:00.133Z,1.88
2022-09-15T16:06:31.769Z,1.90
2022-09-15T16:09:03.071Z,1.35
2022-09-15T16:11:34.753Z,2.00
2022-09-15T16:14:03.870Z,1.83
2022-09-15T16:16:33.174Z,1.77
2022-09-15T16:19:02.769Z,2.03
2022-09-15T16:21:38.023Z,1.77
2022-09-15T16:24:16.198Z,1.90
2022-09-15T16:26:45.705Z,1.75
2022-09-15T16:29:14.895Z,1.98
2022-09-15T16:31:44.359Z,2.10
2022-09-15T16:34:17.636Z,1.83
2022-09-15T16:36:48.746Z,2.45
2022-09-15T16:39:18.078Z,1.90
2022-09-15T16:41:47.236Z,1.83
2022-09-15T16:44:27.491Z,1.95
2022-09-15T16:46:56.775Z,2.15
2022-09-15T16:49:25.809Z,2.10
2022-09-15T16:51:56.972Z,2.08
2022-09-15T16:54:26.921Z,2.03
2022-09-15T16:57:01.309Z,2.35
2022-09-15T16:59:31.185Z,2.47
2022-09-15T17:02:00.191Z,2.40
2022-09-15T17:04:29.332Z,2.47
2022-09-15T17:07:00.299Z,2.40
2022-09-15T17:09:36.149Z,2.50
2022-09-15T17:12:05.845Z,2.80
2022-09-15T17:14:34.913Z,3.70
2022-09-15T17:17:03.914Z,3.38
2022-09-15T17:19:33.022Z,5.45
2022-09-15T17:22:04.016Z,5.13
2022-09-15T17:24:33.180Z,4.47
2022-09-15T17:27:02.974Z,4.90
2022-09-15T17:29:42.413Z,5.25
2022-09-15T17:32:11.582Z,5.35
2022-09-15T17:34:40.939Z,5.15
2022-09-15T17:37:12.508Z,5.22
2022-09-15T17:44:53.217Z,6.47
2022-09-15T17:47:22.233Z,5.72
2022-09-15T17:50:01.506Z,5.65
2022-09-15T17:52:34.651Z,5.45
2022-09-15T17:55:04.276Z,5.22
2022-09-15T17:57:33.409Z,5.35
2022-09-15T18:00:09.666Z,5.38
2022-09-15T18:02:39.896Z,6.07
2022-09-15T18:05:17.850Z,6.43
2022-09-15T18:07:49.406Z,6.25
2022-09-15T18:10:20.097Z,6.13
2022-09-15T18:12:52.276Z,15.10
2022-09-15T18:15:31.923Z,8.45
2022-09-15T18:18:03.846Z,6.30
2022-09-15T18:23:11.935Z,10.23
2022-09-15T18:25:46.788Z,10.55
2022-09-15T18:28:16.342Z,9.38
2022-09-15T18:30:47.561Z,9.10
2022-09-15T18:33:19.052Z,8.18
2022-09-15T18:35:49.070Z,8.25
2022-09-15T18:38:21.274Z,7.70
2022-09-15T18:40:54.615Z,7.20
2022-09-15T18:43:25.868Z,7.72
2022-09-15T18:45:56.100Z,7.45
2022-09-15T18:48:26.319Z,6.00
2022-09-15T18:51:01.787Z,7.43
2022-09-15T18:53:32.921Z,7.97
2022-09-15T18:56:02.288Z,7.65
2022-09-15T18:58:31.477Z,8.23
2022-09-15T19:01:01.665Z,8.40
2022-09-15T19:03:31.049Z,8.70
2022-09-15T19:06:06.225Z,8.60
2022-09-15T19:08:43.148Z,8.63
2022-09-15T19:11:12.496Z,8.32
2022-09-15T19:13:41.880Z,10.02
2022-09-15T19:16:11.834Z,9.65
2022-09-15T19:18:46.769Z,9.23
2022-09-15T19:21:25.195Z,8.77
2022-09-15T19:24:00.801Z,8.27
2022-09-15T19:26:30.144Z,8.43
2022-09-15T19:29:04.614Z,7.78
2022-09-15T19:31:36.480Z,7.93
2022-09-15T19:34:07.719Z,8.20
2022-09-15T19:36:36.864Z,8.82
2022-09-15T19:39:15.450Z,8.98
2022-09-15T19:41:49.802Z,9.98
2022-09-15T19:44:19.328Z,8.88
2022-09-15T19:46:48.452Z,9.60
2022-09-15T19:49:22.685Z,9.05
2022-09-15T19:51:55.041Z,8.70
2022-09-15T19:54:28.183Z,8.48
2022-09-15T19:56:58.262Z,8.57
2022-09-15T19:59:30.978Z,8.55
2022-09-15T20:02:02.432Z,8.52
2022-09-15T20:04:31.752Z,8.50
2022-09-15T20:07:00.926Z,8.82
2022-09-15T20:09:32.260Z,7.85
2022-09-15T20:12:02.993Z,8.48
2022-09-15T20:14:33.118Z,8.07
2022-09-15T20:17:02.528Z,7.35
2022-09-15T20:19:31.967Z,8.52
2022-09-15T20:22:01.253Z,7.57
2022-09-15T20:24:37.482Z,7.28
2022-09-15T20:27:08.460Z,7.43
2022-09-15T20:29:38.271Z,7.07
2022-09-15T20:32:07.605Z,7.43
2022-09-15T20:34:43.231Z,7.65
2022-09-15T20:37:12.864Z,8.10
2022-09-15T20:39:48.120Z,8.38
2022-09-15T20:42:17.510Z,8.18
2022-09-15T20:44:51.747Z,9.32
2022-09-15T20:47:21.075Z,8.15
2022-09-15T20:49:50.086Z,8.77
2022-09-15T20:52:19.283Z,8.27
2022-09-15T20:54:50.287Z,8.90
2022-09-15T20:57:25.986Z,7.95
2022-09-15T20:59:55.201Z,7.65
2022-09-15T21:02:24.317Z,7.70
2022-09-15T21:04:53.518Z,7.88
2022-09-15T21:07:22.827Z,8.25
2022-09-15T21:09:53.824Z,7.75
2022-09-15T21:12:22.980Z,7.60
2022-09-15T21:14:52.077Z,6.88
2022-09-15T21:17:21.379Z,7.57
2022-09-15T21:19:50.612Z,8.10
2022-09-15T21:22:19.718Z,7.28
2022-09-15T21:24:54.055Z,7.28
2022-09-15T21:27:28.552Z,7.40
2022-09-15T21:29:58.042Z,7.38
2022-09-15T21:32:27.141Z,7.85
2022-09-15T21:34:56.255Z,7.28
2022-09-15T21:37:28.563Z,8.20
2022-09-15T21:39:57.818Z,7.93
2022-09-15T21:42:29.173Z,7.47
2022-09-15T21:44:58.313Z,7.70
2022-09-15T21:47:27.406Z,7.70
2022-09-15T21:50:02.609Z,6.85
2022-09-15T21:52:37.759Z,7.00
2022-09-15T21:55:07.902Z,7.05
2022-09-15T21:57:38.948Z,6.88
2022-09-15T22:00:10.248Z,6.65
2022-09-15T22:02:39.539Z,6.80
2022-09-15T22:05:09.139Z,6.45
2022-09-15T22:07:40.009Z,6.15
2022-09-15T22:10:10.430Z,6.90
2022-09-15T22:12:41.462Z,6.47
2022-09-15T22:15:11.885Z,6.88
2022-09-15T22:17:41.075Z,6.28
2022-09-15T22:20:15.573Z,6.60
2022-09-15T22:22:45.584Z,6.30
2022-09-15T22:25:19.807Z,7.13
2022-09-15T22:27:53.728Z,7.07
2022-09-15T22:30:22.865Z,6.97
2022-09-15T22:32:52.144Z,6.97
2022-09-15T22:35:26.456Z,7.13
2022-09-15T22:37:55.450Z,8.10
2022-09-15T22:40:24.595Z,8.07
2022-09-15T22:43:01.727Z,8.02
2022-09-15T22:45:31.286Z,9.10
2022-09-15T22:48:00.382Z,8.60
2022-09-15T22:50:29.720Z,8.45
2022-09-15T22:52:58.826Z,8.38
2022-09-15T22:55:28.098Z,8.55
2022-09-15T22:57:57.352Z,8.23
2022-09-15T23:00:28.901Z,8.23
2022-09-15T23:02:58.029Z,8.43
2022-09-15T23:05:27.298Z,8.93
2022-09-15T23:07:56.615Z,8.20
2022-09-15T23:10:26.614Z,8.35
2022-09-15T23:12:55.860Z,8.77
2022-09-15T23:15:24.883Z,8.25
2022-09-15T23:17:55.985Z,8.35
2022-09-15T23:20:25.273Z,8.88
2022-09-15T23:22:54.820Z,7.85
2022-09-15T23:25:24.251Z,8.50
2022-09-15T23:27:53.292Z,8.55
2022-09-15T23:30:29.154Z,8.43
2022-09-15T23:33:00.291Z,9.02
2022-09-15T23:35:34.496Z,9.30
2022-09-15T23:38:06.095Z,11.88
2022-09-15T23:40:35.487Z,12.95
2022-09-15T23:43:04.596Z,14.80
2022-09-15T23:45:39.424Z,12.20
2022-09-15T23:48:11.490Z,12.27
2022-09-15T23:50:45.782Z,15.88
2022-09-15T23:53:15.044Z,18.25
2022-09-15T23:55:44.020Z,18.33
2022-09-15T23:58:18.378Z,17.65
